createdAt,value
2022-09-06T00:01:12.291Z,97179.59
2022-09-06T00:03:39.410Z,97176.97
2022-09-06T00:06:09.201Z,97178.38
2022-09-06T00:08:36.237Z,97171.25
2022-09-06T00:11:02.901Z,97176.94
2022-09-06T00:13:29.877Z,97181.66
2022-09-06T00:15:56.613Z,97179.66
2022-09-06T00:18:23.391Z,97174.16
2022-09-06T00:20:50.038Z,97179.88
2022-09-06T00:23:21.764Z,97170.91
2022-09-06T00:25:48.327Z,97185.59
2022-09-06T00:28:16.129Z,97170.06
2022-09-06T00:30:42.770Z,97172.72
2022-09-06T00:33:09.373Z,97173.31
2022-09-06T00:35:35.955Z,97169.25
2022-09-06T00:38:02.710Z,97183.97
2022-09-06T00:40:35.835Z,97186.41
2022-09-06T00:43:02.450Z,97196.19
2022-09-06T00:45:31.189Z,97192.50
2022-09-06T00:47:59.726Z,97195.63
2022-09-06T00:50:27.941Z,97196.00
2022-09-06T00:52:54.915Z,97196.22
2022-09-06T00:55:21.989Z,97194.16
2022-09-06T00:57:51.484Z,97192.09
2022-09-06T01:00:22.162Z,97185.59
2022-09-06T01:02:49.710Z,97196.59
2022-09-06T01:05:18.234Z,97198.22
2022-09-06T01:08:17.918Z,97190.06
2022-09-06T01:11:10.379Z,97197.00
2022-09-06T01:13:42.661Z,97187.19
2022-09-06T01:16:26.019Z,97188.19
2022-09-06T01:19:07.682Z,97189.63
2022-09-06T01:21:53.124Z,97194.88
2022-09-06T01:24:40.128Z,97190.03
2022-09-06T01:27:12.415Z,97190.19
2022-09-06T01:29:54.282Z,97190.81
2022-09-06T01:32:32.991Z,97188.78
2022-09-06T01:35:38.651Z,97186.78
2022-09-06T01:38:11.498Z,97169.81
2022-09-06T01:40:38.081Z,97181.22
2022-09-06T01:43:10.897Z,97181.03
2022-09-06T01:45:51.575Z,97183.69
2022-09-06T01:48:27.170Z,97181.25
2022-09-06T01:51:03.079Z,97189.63
2022-09-06T01:54:00.555Z,97181.66
2022-09-06T01:57:03.563Z,97186.75
2022-09-06T01:59:45.144Z,97185.69
2022-09-06T02:02:26.336Z,97189.16
2022-09-06T02:05:02.262Z,97184.09
2022-09-06T02:07:31.425Z,97190.19
2022-09-06T02:10:13.507Z,97186.75
2022-09-06T02:12:43.564Z,97195.44
2022-09-06T02:15:23.703Z,97192.78
2022-09-06T02:18:28.854Z,97198.03
2022-09-06T02:20:58.673Z,97201.38
2022-09-06T02:23:30.224Z,97199.63
2022-09-06T02:26:03.083Z,97194.88
2022-09-06T02:28:31.045Z,97187.97
2022-09-06T02:31:12.236Z,97189.78
2022-09-06T02:33:40.655Z,97182.28
2022-09-06T02:36:09.229Z,97186.75
2022-09-06T02:38:40.491Z,97188.19
2022-09-06T02:41:09.633Z,97182.09
2022-09-06T02:43:36.459Z,97181.47
2022-09-06T02:46:04.101Z,97176.34
2022-09-06T02:48:30.776Z,97185.75
2022-09-06T02:51:05.477Z,97177.66
2022-09-06T02:53:32.600Z,97177.47
2022-09-06T02:55:59.888Z,97172.56
2022-09-06T02:58:27.630Z,97173.91
2022-09-06T03:00:54.368Z,97182.88
2022-09-06T03:03:21.984Z,97170.63
2022-09-06T03:05:50.900Z,97166.38
2022-09-06T03:08:19.012Z,97160.88
2022-09-06T03:10:49.940Z,97167.81
2022-09-06T03:13:19.794Z,97157.56
2022-09-06T03:15:54.159Z,97161.69
2022-09-06T03:18:20.856Z,97165.72
2022-09-06T03:20:49.754Z,97170.78
2022-09-06T03:23:17.558Z,97157.75
2022-09-06T03:25:44.689Z,97155.88
2022-09-06T03:28:11.414Z,97156.53
2022-09-06T03:30:38.046Z,97161.81
2022-09-06T03:33:04.673Z,97164.88
2022-09-06T03:35:31.539Z,97154.72
2022-09-06T03:37:58.132Z,97156.97
2022-09-06T03:40:24.695Z,97155.09
2022-09-06T03:42:51.677Z,97147.56
2022-09-06T03:45:19.307Z,97140.00
2022-09-06T03:47:45.918Z,97135.53
2022-09-06T03:50:12.752Z,97139.44
2022-09-06T03:52:39.469Z,97134.75
2022-09-06T03:55:06.938Z,97143.00
2022-09-06T03:57:34.711Z,97156.22
2022-09-06T04:00:01.356Z,97152.78
2022-09-06T04:02:27.983Z,97160.72
2022-09-06T04:04:55.630Z,97153.13
2022-09-06T04:07:23.094Z,97156.22
2022-09-06T04:09:50.751Z,97159.53
2022-09-06T04:12:17.311Z,97158.22
2022-09-06T04:14:44.043Z,97162.69
2022-09-06T04:17:10.752Z,97162.28
2022-09-06T04:19:37.374Z,97152.91
2022-09-06T04:22:03.966Z,97153.91
2022-09-06T04:24:30.542Z,97146.78
2022-09-06T04:26:57.170Z,97151.38
2022-09-06T04:29:24.529Z,97146.50
2022-09-06T04:31:51.150Z,97151.63
2022-09-06T04:34:17.809Z,97151.47
2022-09-06T04:36:48.195Z,97158.25
2022-09-06T04:39:15.244Z,97150.97
2022-09-06T04:41:42.680Z,97147.28
2022-09-06T04:44:09.457Z,97151.97
2022-09-06T04:46:36.105Z,97155.59
2022-09-06T04:49:03.211Z,97153.22
2022-09-06T04:51:29.931Z,97158.91
2022-09-06T04:53:56.543Z,97156.53
2022-09-06T04:56:25.450Z,97155.09
2022-09-06T04:58:54.199Z,97159.88
2022-09-06T05:01:21.483Z,97165.16
2022-09-06T05:03:48.204Z,97167.81
2022-09-06T05:06:24.996Z,97166.31
2022-09-06T05:08:52.660Z,97162.00
2022-09-06T05:11:19.743Z,97171.56
2022-09-06T05:13:47.486Z,97165.06
2022-09-06T05:16:14.398Z,97169.16
2022-09-06T05:18:41.058Z,97163.53
2022-09-06T05:21:08.030Z,97167.97
2022-09-06T05:23:34.710Z,97162.06
2022-09-06T05:26:01.522Z,97168.06
2022-09-06T05:28:29.261Z,97166.41
2022-09-06T05:31:10.761Z,97168.28
2022-09-06T05:33:37.882Z,97166.50
2022-09-06T05:36:06.365Z,97160.19
2022-09-06T05:38:33.563Z,97154.34
2022-09-06T05:41:00.434Z,97154.97
2022-09-06T05:43:27.169Z,97152.13
2022-09-06T05:45:53.863Z,97149.88
2022-09-06T05:48:20.570Z,97158.66
2022-09-06T05:50:47.179Z,97162.41
2022-09-06T05:53:13.880Z,97173.09
2022-09-06T05:55:42.984Z,97165.88
2022-09-06T05:58:09.917Z,97166.59
2022-09-06T06:00:37.647Z,97166.03
2022-09-06T06:03:04.307Z,97165.75
2022-09-06T06:05:30.918Z,97170.97
2022-09-06T06:07:59.684Z,97160.16
2022-09-06T06:10:27.285Z,97163.00
2022-09-06T06:12:54.035Z,97171.03
2022-09-06T06:15:20.612Z,97167.97
2022-09-06T06:17:47.233Z,97164.38
2022-09-06T06:20:13.904Z,97164.56
2022-09-06T06:22:40.511Z,97160.31
2022-09-06T06:25:07.427Z,97160.47
2022-09-06T06:27:35.440Z,97149.00
2022-09-06T06:30:02.013Z,97156.47
2022-09-06T06:32:28.669Z,97152.34
2022-09-06T06:34:55.259Z,97150.53
2022-09-06T06:37:21.837Z,97157.97
2022-09-06T06:39:48.433Z,97147.84
2022-09-06T06:42:16.100Z,97152.34
2022-09-06T06:44:42.845Z,97143.72
2022-09-06T06:47:09.425Z,97159.16
2022-09-06T06:49:36.009Z,97152.63
2022-09-06T06:52:02.803Z,97150.25
2022-09-06T06:54:29.917Z,97138.56
2022-09-06T06:56:56.687Z,97131.66
2022-09-06T06:59:23.359Z,97133.06
2022-09-06T07:01:50.783Z,97131.84
2022-09-06T07:04:17.622Z,97135.00
2022-09-06T07:12:28.644Z,97148.47
2022-09-06T07:14:55.675Z,97139.94
2022-09-06T07:17:22.277Z,97146.94
2022-09-06T07:22:35.441Z,97139.09
2022-09-06T07:25:02.786Z,97133.84
2022-09-06T07:30:12.077Z,97132.72
2022-09-06T07:32:38.655Z,97137.25
2022-09-06T07:35:05.710Z,97134.69
2022-09-06T07:37:32.301Z,97135.22
2022-09-06T07:39:58.894Z,97139.69
2022-09-06T07:42:25.502Z,97135.63
2022-09-06T07:44:52.071Z,97129.19
2022-09-06T07:53:10.843Z,97130.78
2022-09-06T07:55:39.028Z,97141.44
2022-09-06T07:58:05.677Z,97140.50
2022-09-06T08:00:32.300Z,97138.66
2022-09-06T08:02:59.162Z,97137.91
2022-09-06T08:10:58.881Z,97141.09
2022-09-06T08:13:25.472Z,97143.41
2022-09-06T08:16:03.543Z,97144.13
2022-09-06T08:18:31.287Z,97139.38
2022-09-06T08:21:11.528Z,97148.41
2022-09-06T08:23:45.348Z,97141.06
2022-09-06T08:26:12.150Z,97142.94
2022-09-06T08:28:38.888Z,97127.19
2022-09-06T08:31:11.183Z,97138.28
2022-09-06T08:33:39.016Z,97139.91
2022-09-06T08:36:06.786Z,97137.84
2022-09-06T08:38:33.986Z,97144.03
2022-09-06T08:41:46.264Z,97131.44
2022-09-06T08:47:38.536Z,97125.91
2022-09-06T08:50:09.401Z,97126.47
2022-09-06T08:53:16.603Z,97123.78
2022-09-06T08:55:59.646Z,97126.84
2022-09-06T08:58:58.567Z,97135.50
2022-09-06T09:01:37.931Z,97130.00
2022-09-06T09:04:08.166Z,97124.97
2022-09-06T09:06:35.497Z,97123.38
2022-09-06T09:09:13.418Z,97121.81
2022-09-06T09:11:44.739Z,97118.34
2022-09-06T09:14:17.473Z,97118.31
2022-09-06T09:16:44.439Z,97100.16
2022-09-06T09:19:11.181Z,97093.97
2022-09-06T09:21:40.232Z,97087.75
2022-09-06T09:24:09.676Z,97090.69
2022-09-06T09:26:42.646Z,97090.06
2022-09-06T09:29:12.605Z,97088.72
2022-09-06T09:31:41.923Z,97093.16
2022-09-06T09:34:13.824Z,97092.13
2022-09-06T09:36:41.042Z,97082.94
2022-09-06T09:39:12.035Z,97078.97
2022-09-06T09:41:43.687Z,97077.75
2022-09-06T09:44:17.670Z,97064.13
2022-09-06T09:46:44.692Z,97066.69
2022-09-06T09:49:14.065Z,97061.31
2022-09-06T09:51:43.202Z,97062.97
2022-09-06T09:54:12.880Z,97065.47
2022-09-06T09:56:52.933Z,97063.03
2022-09-06T09:59:27.595Z,97060.81
2022-09-06T10:01:58.141Z,97058.59
2022-09-06T10:04:47.476Z,97052.38
2022-09-06T10:07:23.311Z,97053.63
2022-09-06T10:09:59.234Z,97055.50
2022-09-06T10:12:40.944Z,97058.72
2022-09-06T10:15:09.953Z,97054.97
2022-09-06T10:17:47.650Z,97049.03
2022-09-06T10:20:14.897Z,97057.66
2022-09-06T10:23:06.600Z,97051.41
2022-09-06T10:25:49.190Z,97045.28
2022-09-06T10:28:36.541Z,97049.03
2022-09-06T10:31:12.977Z,97047.63
2022-09-06T10:34:04.574Z,97041.81
2022-09-06T10:36:37.404Z,97030.16
2022-09-06T10:39:25.635Z,97033.22
2022-09-06T10:42:07.192Z,97029.84
2022-09-06T10:44:54.462Z,97031.44
2022-09-06T10:47:27.553Z,97021.34
2022-09-06T10:49:57.911Z,97017.72
2022-09-06T10:52:28.904Z,97022.63
2022-09-06T10:55:02.226Z,97022.03
2022-09-06T11:00:47.421Z,97024.31
2022-09-06T11:06:12.486Z,97027.44
2022-09-06T11:08:53.578Z,97012.53
2022-09-06T11:12:02.593Z,97001.78
2022-09-06T11:14:30.235Z,97006.00
2022-09-06T11:17:05.003Z,97004.19
2022-09-06T11:19:49.019Z,96998.75
2022-09-06T11:23:00.600Z,96999.53
2022-09-06T11:25:36.354Z,96988.34
2022-09-06T11:28:09.211Z,96985.34
2022-09-06T11:30:37.481Z,96988.16
2022-09-06T11:33:16.609Z,96980.75
2022-09-06T11:35:43.211Z,96978.72
2022-09-06T11:38:16.757Z,96973.63
2022-09-06T11:40:47.915Z,96973.81
2022-09-06T11:43:29.726Z,96972.47
2022-09-06T11:45:57.339Z,96965.84
2022-09-06T11:48:23.942Z,96963.81
2022-09-06T11:50:59.461Z,96962.16
2022-09-06T11:53:32.094Z,96961.03
2022-09-06T11:56:01.467Z,96956.75
2022-09-06T11:58:40.047Z,96957.31
2022-09-06T12:01:12.783Z,96948.78
2022-09-06T12:04:05.382Z,96943.34
2022-09-06T12:07:03.739Z,96944.75
2022-09-06T12:09:37.773Z,96939.34
2022-09-06T12:12:04.828Z,96937.72
2022-09-06T12:14:36.046Z,96940.00
2022-09-06T12:17:04.898Z,96929.91
2022-09-06T12:19:48.272Z,96930.28
2022-09-06T12:22:27.069Z,96928.28
2022-09-06T12:25:00.125Z,96933.56
2022-09-06T12:27:30.562Z,96934.28
2022-09-06T12:30:07.555Z,96927.50
2022-09-06T12:32:41.911Z,96922.09
2022-09-06T12:38:06.877Z,96922.47
2022-09-06T12:40:45.841Z,96914.78
2022-09-06T12:43:15.438Z,96914.94
2022-09-06T12:45:48.059Z,96910.75
2022-09-06T12:48:28.401Z,96906.19
2022-09-06T12:51:04.245Z,96907.34
2022-09-06T12:53:31.766Z,96901.53
2022-09-06T12:56:08.013Z,96899.06
2022-09-06T12:58:35.313Z,96895.22
2022-09-06T13:01:14.727Z,96902.94
2022-09-06T13:03:50.413Z,96895.13
2022-09-06T13:06:26.843Z,96897.59
2022-09-06T13:08:57.225Z,96886.81
2022-09-06T13:11:39.803Z,96887.75
2022-09-06T13:14:17.548Z,96881.97
2022-09-06T13:16:47.479Z,96878.66
2022-09-06T13:19:40.599Z,96870.22
2022-09-06T13:22:10.929Z,96864.94
2022-09-06T13:24:46.380Z,96873.47
2022-09-06T13:27:37.139Z,96871.16
2022-09-06T13:30:10.878Z,96868.28
2022-09-06T13:32:46.620Z,96869.31
2022-09-06T13:35:24.003Z,96856.59
2022-09-06T13:37:50.586Z,96860.56
2022-09-06T13:40:53.884Z,96864.78
2022-09-06T13:43:25.177Z,96860.16
2022-09-06T13:46:05.056Z,96857.84
2022-09-06T13:48:31.719Z,96850.56
2022-09-06T13:50:58.696Z,96856.97
2022-09-06T13:53:25.310Z,96852.34
2022-09-06T13:55:52.853Z,96843.28
2022-09-06T13:58:19.517Z,96856.31
2022-09-06T14:00:46.935Z,96852.06
2022-09-06T14:03:26.917Z,96860.44
2022-09-06T14:05:53.701Z,96862.22
2022-09-06T14:08:21.223Z,96852.28
2022-09-06T14:10:48.456Z,96849.00
2022-09-06T14:13:18.892Z,96852.94
2022-09-06T14:15:49.409Z,96853.09
2022-09-06T14:18:17.220Z,96846.81
2022-09-06T14:20:52.457Z,96853.16
2022-09-06T14:23:19.321Z,96843.22
2022-09-06T14:25:45.941Z,96849.50
2022-09-06T14:28:12.755Z,96845.41
2022-09-06T14:30:39.395Z,96846.38
2022-09-06T14:33:06.098Z,96852.69
2022-09-06T14:35:32.954Z,96846.59
2022-09-06T14:38:00.609Z,96849.97
2022-09-06T14:40:27.565Z,96843.97
2022-09-06T14:42:56.660Z,96853.56
2022-09-06T14:45:23.247Z,96839.81
2022-09-06T14:47:49.886Z,96854.34
2022-09-06T14:50:16.744Z,96841.41
2022-09-06T14:52:43.373Z,96840.63
2022-09-06T14:55:10.985Z,96839.06
2022-09-06T14:57:37.561Z,96840.25
2022-09-06T15:00:08.661Z,96829.31
2022-09-06T15:02:35.633Z,96823.84
2022-09-06T15:05:02.825Z,96826.97
2022-09-06T15:07:29.649Z,96822.06
2022-09-06T15:09:56.258Z,96822.00
2022-09-06T15:12:23.019Z,96822.28
2022-09-06T15:14:49.686Z,96820.97
2022-09-06T15:17:16.498Z,96823.69
2022-09-06T15:19:43.189Z,96815.19
2022-09-06T15:22:09.762Z,96810.47
2022-09-06T15:24:36.847Z,96812.00
2022-09-06T15:27:03.864Z,96808.56
2022-09-06T15:29:32.537Z,96810.47
2022-09-06T15:32:08.151Z,96810.00
2022-09-06T15:34:35.540Z,96799.06
2022-09-06T15:37:02.099Z,96802.38
2022-09-06T15:39:28.807Z,96801.59
2022-09-06T15:41:57.125Z,96798.69
2022-09-06T15:44:23.804Z,96809.34
2022-09-06T15:46:57.261Z,96786.50
2022-09-06T15:49:32.138Z,96800.56
2022-09-06T15:52:02.589Z,96795.84
2022-09-06T15:54:49.495Z,96792.22
2022-09-06T15:57:17.413Z,96800.81
2022-09-06T15:59:44.366Z,96791.72
2022-09-06T16:02:11.816Z,96795.16
2022-09-06T16:04:38.982Z,96793.31
2022-09-06T16:07:05.913Z,96790.53
2022-09-06T16:09:32.512Z,96797.19
2022-09-06T16:11:59.128Z,96784.56
2022-09-06T16:14:25.954Z,96783.91
2022-09-06T16:16:54.878Z,96788.06
2022-09-06T16:19:21.641Z,96790.66
2022-09-06T16:21:48.222Z,96793.28
2022-09-06T16:24:15.393Z,96786.78
2022-09-06T16:26:44.378Z,96784.59
2022-09-06T16:29:12.909Z,96780.56
2022-09-06T16:31:40.875Z,96788.63
2022-09-06T16:34:14.129Z,96787.94
2022-09-06T16:36:41.224Z,96787.72
2022-09-06T16:39:08.591Z,96786.03
2022-09-06T16:41:43.901Z,96788.19
2022-09-06T16:44:17.456Z,96790.94
2022-09-06T16:46:46.339Z,96783.47
2022-09-06T16:49:13.258Z,96785.59
2022-09-06T16:51:47.682Z,96783.34
2022-09-06T16:54:15.615Z,96786.63
2022-09-06T16:56:42.861Z,96781.31
2022-09-06T16:59:10.595Z,96780.88
2022-09-06T17:01:41.382Z,96781.19
2022-09-06T17:04:08.150Z,96781.44
2022-09-06T17:06:38.364Z,96780.84
2022-09-06T17:09:05.331Z,96775.53
2022-09-06T17:11:31.903Z,96773.44
2022-09-06T17:13:58.495Z,96777.78
2022-09-06T17:16:44.875Z,96769.47
2022-09-06T17:19:12.035Z,96777.84
2022-09-06T17:21:40.089Z,96771.94
2022-09-06T17:24:08.430Z,96776.81
2022-09-06T17:26:37.538Z,96771.44
2022-09-06T17:29:04.734Z,96776.84
2022-09-06T17:31:31.449Z,96774.97
2022-09-06T17:33:59.687Z,96777.38
2022-09-06T17:36:30.566Z,96782.75
2022-09-06T17:39:01.869Z,96779.28
2022-09-06T17:41:45.752Z,96788.66
2022-09-06T17:44:14.811Z,96788.38
2022-09-06T17:46:56.991Z,96799.06
2022-09-06T17:49:34.478Z,96797.69
2022-09-06T17:52:01.057Z,96795.00
2022-09-06T17:54:27.980Z,96804.66
2022-09-06T17:56:57.558Z,96797.44
2022-09-06T17:59:24.148Z,96805.16
2022-09-06T18:01:52.480Z,96806.69
2022-09-06T18:04:19.541Z,96810.16
2022-09-06T18:06:47.542Z,96812.72
2022-09-06T18:09:16.890Z,96818.88
2022-09-06T18:11:45.991Z,96815.09
2022-09-06T18:14:16.575Z,96819.88
2022-09-06T18:16:49.028Z,96826.50
2022-09-06T18:19:16.642Z,96823.50
2022-09-06T18:21:43.497Z,96826.66
2022-09-06T18:24:14.041Z,96831.88
2022-09-06T18:26:41.648Z,96832.97
2022-09-06T18:29:12.034Z,96843.91
2022-09-06T18:31:39.902Z,96844.56
2022-09-06T18:34:07.890Z,96849.69
2022-09-06T18:36:35.108Z,96843.47
2022-09-06T18:39:04.752Z,96846.63
2022-09-06T18:42:04.687Z,96851.53
2022-09-06T18:44:33.291Z,96851.72
2022-09-06T18:47:06.046Z,96854.59
2022-09-06T18:49:33.850Z,96851.97
2022-09-06T18:52:02.459Z,96849.75
2022-09-06T18:54:29.270Z,96856.47
2022-09-06T18:56:56.436Z,96866.59
2022-09-06T18:59:23.494Z,96865.41
2022-09-06T19:01:50.275Z,96859.81
2022-09-06T19:04:17.204Z,96870.44
2022-09-06T19:06:45.073Z,96865.81
2022-09-06T19:09:15.079Z,96870.34
2022-09-06T19:11:43.487Z,96876.94
2022-09-06T19:14:10.314Z,96871.00
2022-09-06T19:16:37.001Z,96877.47
2022-09-06T19:19:07.029Z,96875.50
2022-09-06T19:21:39.154Z,96873.53
2022-09-06T19:24:09.277Z,96878.59
2022-09-06T19:26:38.249Z,96871.41
2022-09-06T19:29:09.194Z,96873.47
2022-09-06T19:31:38.363Z,96874.75
2022-09-06T19:34:07.461Z,96871.66
2022-09-06T19:36:34.162Z,96870.22
2022-09-06T19:39:06.722Z,96867.25
2022-09-06T19:41:37.981Z,96874.59
2022-09-06T19:44:05.977Z,96865.88
2022-09-06T19:46:33.135Z,96867.06
2022-09-06T19:49:00.926Z,96869.91
2022-09-06T19:51:28.628Z,96868.31
2022-09-06T19:54:02.745Z,96866.81
2022-09-06T19:56:33.886Z,96869.16
2022-09-06T19:59:03.374Z,96866.00
2022-09-06T20:01:32.972Z,96867.78
2022-09-06T20:04:02.673Z,96869.56
2022-09-06T20:06:30.274Z,96866.50
2022-09-06T20:08:58.146Z,96859.38
2022-09-06T20:11:27.541Z,96865.19
2022-09-06T20:13:54.507Z,96862.28
2022-09-06T20:16:24.765Z,96862.09
2022-09-06T20:18:52.443Z,96856.09
2022-09-06T20:21:21.142Z,96858.84
2022-09-06T20:23:55.366Z,96853.56
2022-09-06T20:26:23.911Z,96855.41
2022-09-06T20:29:01.548Z,96851.03
2022-09-06T20:31:29.989Z,96862.63
2022-09-06T20:33:59.156Z,96858.44
2022-09-06T20:36:26.057Z,96855.16
2022-09-06T20:38:52.675Z,96839.69
2022-09-06T20:41:21.506Z,96833.84
2022-09-06T20:43:53.215Z,96834.06
2022-09-06T20:46:22.037Z,96834.06
2022-09-06T20:48:51.911Z,96836.91
2022-09-06T20:51:20.764Z,96834.66
2022-09-06T20:53:51.751Z,96839.91
2022-09-06T20:56:20.937Z,96831.69
2022-09-06T20:58:56.289Z,96830.75
2022-09-06T21:01:25.110Z,96822.00
2022-09-06T21:03:54.556Z,96824.91
2022-09-06T21:06:23.109Z,96813.53
2022-09-06T21:08:53.714Z,96810.88
2022-09-06T21:11:20.578Z,96815.50
2022-09-06T21:13:51.621Z,96809.47
2022-09-06T21:16:24.411Z,96816.88
2022-09-06T21:18:56.941Z,96810.97
2022-09-06T21:21:24.846Z,96816.53
2022-09-06T21:23:51.844Z,96817.94
2022-09-06T21:26:29.316Z,96814.34
2022-09-06T21:28:56.102Z,96817.38
2022-09-06T21:31:25.269Z,96820.03
2022-09-06T21:33:54.418Z,96816.78
2022-09-06T21:36:32.269Z,96813.06
2022-09-06T21:39:09.904Z,96815.97
2022-09-06T21:41:43.464Z,96833.25
2022-09-06T21:44:10.610Z,96834.03
2022-09-06T21:46:38.833Z,96833.34
2022-09-06T21:49:08.942Z,96831.69
2022-09-06T21:51:36.079Z,96831.03
2022-09-06T21:54:04.477Z,96831.22
2022-09-06T21:56:34.052Z,96836.44
2022-09-06T21:59:00.834Z,96836.88
2022-09-06T22:01:29.769Z,96846.88
2022-09-06T22:03:56.574Z,96843.69
2022-09-06T22:06:25.795Z,96843.44
2022-09-06T22:08:52.908Z,96843.03
2022-09-06T22:11:24.873Z,96851.31
2022-09-06T22:13:51.554Z,96841.50
2022-09-06T22:16:20.839Z,96846.94
2022-09-06T22:18:49.099Z,96839.31
2022-09-06T22:21:21.259Z,96833.72
2022-09-06T22:23:51.718Z,96836.09
2022-09-06T22:26:19.141Z,96832.31
2022-09-06T22:28:46.220Z,96839.63
2022-09-06T22:31:13.131Z,96839.03
2022-09-06T22:33:39.903Z,96838.59
2022-09-06T22:36:07.425Z,96846.41
2022-09-06T22:38:38.264Z,96845.28
2022-09-06T22:41:05.352Z,96849.66
2022-09-06T22:43:32.262Z,96856.19
2022-09-06T22:46:08.559Z,96849.91
2022-09-06T22:48:35.798Z,96846.22
2022-09-06T22:51:03.748Z,96849.78
2022-09-06T22:53:31.957Z,96845.66
2022-09-06T22:55:59.069Z,96844.25
2022-09-06T22:58:29.592Z,96848.75
2022-09-06T23:00:57.206Z,96848.59
2022-09-06T23:03:23.970Z,96852.59
2022-09-06T23:05:50.611Z,96857.03
2022-09-06T23:08:18.184Z,96853.50
2022-09-06T23:10:44.780Z,96848.31
2022-09-06T23:13:11.765Z,96845.94
2022-09-06T23:15:40.876Z,96848.16
2022-09-06T23:18:08.493Z,96848.16
2022-09-06T23:20:37.084Z,96839.25
2022-09-06T23:23:04.639Z,96840.44
2022-09-06T23:25:31.388Z,96833.34
2022-09-06T23:28:00.249Z,96823.03
2022-09-06T23:30:27.843Z,96816.81
2022-09-06T23:32:56.460Z,96820.94
2022-09-06T23:35:25.143Z,96827.13
2022-09-06T23:37:52.284Z,96824.63
2022-09-06T23:40:19.646Z,96826.75
2022-09-06T23:42:47.219Z,96822.06
2022-09-06T23:45:13.992Z,96818.34
2022-09-06T23:47:41.243Z,96827.03
2022-09-06T23:50:08.103Z,96818.88
2022-09-06T23:52:34.708Z,96808.47
2022-09-06T23:55:01.371Z,96803.22
2022-09-06T23:57:27.957Z,96802.44
2022-09-06T23:59:54.631Z,96802.34
